Terminal Aerodrome Forecast
Issued by NWS

Home | Current Version | Previous Version | Text Only | Print | Product List | Glossary On
Versions: 1 2 3 4 5 6 7 8 9 10 11 12 13 14 15 16 17
000
FTUS45 KPIH 260525 CCA
TAFSUN
TAF COR
KSUN 260525Z 2606/2706 32011KT P6SM VCSH SCT030 BKN050 OVC080
     FM261200 32015KT P6SM SCT050 BKN080 OVC200
     FM262000 26010G15KT P6SM SCT090
     FM270300 30006KT P6SM FEW100=

USA.gov is the U.S. government's official web portal to all federal, state and local government web resources and services.